Time;durP1;ratioP1;P1;durP2;ratioP2;P2;SDS_P1;SDS_P2;PMS_P1;PMS_P2;Temp;Humidity;BMP_temperature;BMP_pressure;BME280_temperature;BME280_humidity;BME280_pressure;Samples;Min_cycle;Max_cycle;Signal;HPM_P1;HPM_P2
2021/10/06 00:02:03;;;;;;;1999.90;708.50;;;13.70;99.90;;;;;;5114275;28;20447;-78
2021/10/06 00:04:36;;;;;;;1999.90;715.43;;;13.70;99.90;;;;;;5114953;28;20475;-77
2021/10/06 00:07:04;;;;;;;1999.90;605.60;;;13.70;99.90;;;;;;5113004;28;20713;-77
2021/10/06 00:09:33;;;;;;;1994.67;455.83;;;13.70;99.90;;;;;;5096902;28;21015;-76
2021/10/06 00:12:01;;;;;;;1972.40;460.67;;;13.70;99.90;;;;;;5111788;28;20439;-76
2021/10/06 00:14:31;;;;;;;1999.90;678.47;;;13.60;99.90;;;;;;5114400;28;20781;-76
2021/10/06 00:17:05;;;;;;;22.50;20.60;;;13.60;99.90;;;;;;5103349;27;20940;-77
2021/10/06 00:19:34;;;;;;;1999.90;968.50;;;13.60;99.90;;;;;;5104704;28;20229;-76
2021/10/06 00:22:03;;;;;;;28.33;25.73;;;13.60;99.90;;;;;;5093617;28;20459;-77
2021/10/06 00:24:38;;;;;;;1999.90;999.90;;;13.60;99.90;;;;;;5093065;28;20198;-76
2021/10/06 00:27:07;;;;;;;1999.90;800.87;;;13.50;99.90;;;;;;5094317;28;20456;-76
2021/10/06 00:29:35;;;;;;;1999.90;535.33;;;13.50;99.90;;;;;;5110087;28;20471;-76
2021/10/06 00:32:03;;;;;;;1278.27;305.83;;;13.50;99.90;;;;;;5105078;28;20535;-76
2021/10/06 00:34:31;;;;;;;1999.90;521.17;;;13.40;99.90;;;;;;5109794;28;20500;-77
2021/10/06 00:37:01;;;;;;;1163.83;269.40;;;13.40;99.90;;;;;;5111757;28;20554;-76
2021/10/06 00:39:29;;;;;;;1999.90;434.30;;;13.40;99.90;;;;;;5114207;28;20451;-77
2021/10/06 00:41:57;;;;;;;612.47;161.97;;;13.40;99.90;;;;;;5108812;28;20432;-77
2021/10/06 00:44:25;;;;;;;384.97;116.37;;;13.40;99.90;;;;;;5092669;28;20888;-77
2021/10/06 00:46:54;;;;;;;467.50;133.50;;;13.30;99.90;;;;;;5103559;28;20591;-78
2021/10/06 00:49:23;;;;;;;456.03;138.93;;;13.30;99.90;;;;;;5108287;28;20460;-77
2021/10/06 00:51:51;;;;;;;439.43;100.13;;;13.30;99.90;;;;;;5093591;28;20532;-78
2021/10/06 00:54:24;;;;;;;15.00;13.57;;;13.30;99.90;;;;;;5101557;28;20445;-76
2021/10/06 00:56:52;;;;;;;1999.90;967.30;;;13.30;99.90;;;;;;5092537;28;20218;-76
2021/10/06 00:59:22;;;;;;;34.70;31.05;;;13.30;99.90;;;;;;5092047;28;20455;-77
2021/10/06 01:01:53;;;;;;;1999.90;984.30;;;13.30;99.90;;;;;;5092619;28;20195;-76
2021/10/06 01:04:21;;;;;;;1999.90;662.10;;;13.30;99.90;;;;;;5106009;28;20486;-76
2021/10/06 01:06:49;;;;;;;1538.13;307.83;;;13.20;99.90;;;;;;5112661;28;20562;-76
2021/10/06 01:09:17;;;;;;;1627.87;361.03;;;13.20;99.90;;;;;;5098717;28;20472;-76
2021/10/06 01:11:47;;;;;;;132.13;52.63;;;13.10;99.90;;;;;;5093670;28;20525;-77
2021/10/06 01:14:18;;;;;;;362.23;88.40;;;13.10;99.90;;;;;;5093655;28;20491;-76
2021/10/06 01:16:46;;;;;;;474.23;114.83;;;13.10;99.90;;;;;;5092357;28;20563;-76
2021/10/06 01:19:20;;;;;;;360.43;74.53;;;13.10;99.90;;;;;;5093272;28;20543;-77
2021/10/06 01:21:50;;;;;;;315.90;68.23;;;13.00;99.90;;;;;;5093696;28;20535;-77
2021/10/06 01:24:19;;;;;;;391.83;87.47;;;13.00;99.90;;;;;;5092322;28;20543;-76
2021/10/06 01:26:47;;;;;;;467.70;114.70;;;13.00;99.90;;;;;;5092238;28;20456;-76
2021/10/06 01:29:16;;;;;;;384.63;79.40;;;12.90;99.90;;;;;;5096149;28;20515;-77
2021/10/06 01:31:45;;;;;;;14.40;13.07;;;12.90;99.90;;;;;;5091352;28;20802;-76
2021/10/06 01:34:14;;;;;;;1999.90;730.17;;;13.00;99.90;;;;;;5092020;28;20448;-76
2021/10/06 01:36:42;;;;;;;1999.90;706.07;;;12.90;99.90;;;;;;5092004;28;20476;-76
2021/10/06 01:39:11;;;;;;;394.23;108.60;;;12.90;99.90;;;;;;5091987;28;20957;-77
2021/10/06 01:41:40;;;;;;;351.07;90.93;;;12.90;99.90;;;;;;5092101;28;20983;-76
2021/10/06 01:44:13;;;;;;;465.70;102.63;;;12.80;99.90;;;;;;5094226;28;20486;-76
2021/10/06 01:46:41;;;;;;;290.93;67.03;;;12.80;99.90;;;;;;5091968;28;20460;-77
2021/10/06 01:49:10;;;;;;;371.93;92.60;;;12.80;99.90;;;;;;5093582;28;21007;-76
2021/10/06 01:51:38;;;;;;;376.90;90.47;;;12.70;99.90;;;;;;5107467;28;20535;-76
2021/10/06 01:54:06;;;;;;;459.57;83.90;;;12.70;99.90;;;;;;5106938;28;20481;-77
2021/10/06 01:56:36;;;;;;;497.37;129.33;;;12.60;99.90;;;;;;5112271;28;20992;-76
2021/10/06 01:59:05;;;;;;;317.70;74.53;;;12.60;99.90;;;;;;5112265;28;20447;-76
2021/10/06 02:01:33;;;;;;;324.67;61.97;;;12.60;99.90;;;;;;5105824;28;20820;-76
2021/10/06 02:04:01;;;;;;;395.83;80.60;;;12.60;99.90;;;;;;5094852;28;20440;-76
2021/10/06 02:06:29;;;;;;;332.30;85.30;;;12.60;99.90;;;;;;5097314;28;20471;-76
2021/10/06 04:32:13;;;;;;;266.43;68.07;;;12.30;99.90;;;;;;5031420;28;20537;-76
2021/10/06 04:34:42;;;;;;;323.93;74.57;;;12.30;99.90;;;;;;5032762;28;20457;-76
2021/10/06 04:37:11;;;;;;;484.50;94.70;;;12.30;99.90;;;;;;5033148;28;20451;-76
2021/10/06 04:39:40;;;;;;;372.37;66.17;;;12.30;99.90;;;;;;5032680;28;20447;-76
2021/10/06 04:42:08;;;;;;;251.33;66.20;;;12.30;99.90;;;;;;5032675;28;20462;-76
2021/10/06 04:44:37;;;;;;;390.07;89.27;;;12.30;99.90;;;;;;5032606;28;20494;-76
2021/10/06 04:47:06;;;;;;;12.45;11.18;;;12.30;99.90;;;;;;5032731;28;20433;-76
2021/10/06 04:49:35;;;;;;;1981.67;763.53;;;12.40;99.90;;;;;;5032454;28;20708;-76
2021/10/06 04:52:04;;;;;;;13.48;12.27;;;12.40;99.90;;;;;;5031631;28;20444;-76
2021/10/06 04:54:32;;;;;;;1999.90;825.87;;;12.40;99.90;;;;;;5033963;28;20200;-76
2021/10/06 04:57:00;;;;;;;1866.17;541.07;;;12.40;99.90;;;;;;5032619;28;20447;-76
2021/10/06 04:59:28;;;;;;;394.70;114.40;;;12.40;99.90;;;;;;5033826;28;20427;-76
2021/10/06 05:01:58;;;;;;;306.63;62.63;;;12.40;99.90;;;;;;5032356;28;20454;-76
2021/10/06 05:04:27;;;;;;;270.47;57.47;;;12.40;99.90;;;;;;5033855;28;20529;-76
2021/10/06 05:06:56;;;;;;;376.63;80.87;;;12.40;99.90;;;;;;5032404;28;20443;-76
2021/10/06 05:09:24;;;;;;;375.00;86.10;;;12.30;99.90;;;;;;5032093;28;20443;-76
2021/10/06 05:11:52;;;;;;;262.47;71.00;;;12.30;99.90;;;;;;5033899;28;20533;-75
2021/10/06 05:14:21;;;;;;;537.63;93.03;;;12.30;99.90;;;;;;5032345;28;20589;-76
2021/10/06 05:16:52;;;;;;;381.00;78.67;;;12.30;99.90;;;;;;5033701;28;20530;-75
2021/10/06 05:19:20;;;;;;;296.47;73.67;;;12.30;99.90;;;;;;5033337;28;20478;-75
2021/10/06 05:21:49;;;;;;;387.53;86.67;;;12.30;99.90;;;;;;5032176;28;20804;-75
2021/10/06 05:24:18;;;;;;;447.60;98.37;;;12.30;99.90;;;;;;5033270;28;20530;-76
2021/10/06 05:26:46;;;;;;;288.50;65.63;;;12.30;99.90;;;;;;5032211;28;20443;-76
2021/10/06 05:29:16;;;;;;;227.97;56.80;;;12.30;99.90;;;;;;5032077;28;20827;-76
2021/10/06 05:31:44;;;;;;;369.93;74.93;;;12.30;99.90;;;;;;5033123;28;20473;-76
2021/10/06 05:34:13;;;;;;;13.27;11.97;;;12.30;99.90;;;;;;5031210;28;20608;-75
2021/10/06 05:36:41;;;;;;;1999.90;901.27;;;12.30;99.90;;;;;;5032241;28;20838;-76
2021/10/06 05:39:09;;;;;;;158.88;60.17;;;12.30;99.90;;;;;;5031530;28;20460;-75
2021/10/06 05:41:38;;;;;;;1999.90;858.83;;;12.30;99.90;;;;;;5031992;28;20295;-75
2021/10/06 05:44:07;;;;;;;543.00;162.40;;;12.30;99.90;;;;;;5033112;28;20454;-75
2021/10/06 05:46:35;;;;;;;379.43;108.60;;;12.30;99.90;;;;;;5031867;28;20541;-76
2021/10/06 05:49:03;;;;;;;386.00;82.57;;;12.30;99.90;;;;;;5031739;28;20447;-75
2021/10/06 05:51:32;;;;;;;239.33;62.43;;;12.30;99.90;;;;;;5031540;28;20473;-75
2021/10/06 05:54:00;;;;;;;299.67;80.50;;;12.30;99.90;;;;;;5031741;28;20475;-76
2021/10/06 05:56:28;;;;;;;366.20;72.43;;;12.30;99.90;;;;;;5031711;28;20537;-76
2021/10/06 05:58:58;;;;;;;344.17;90.67;;;12.30;99.90;;;;;;5031824;28;20443;-75
2021/10/06 06:01:26;;;;;;;256.87;62.67;;;12.30;99.90;;;;;;5032042;28;20542;-75
2021/10/06 06:03:55;;;;;;;301.17;68.40;;;12.30;99.90;;;;;;5035909;28;20465;-74
2021/10/06 06:06:23;;;;;;;339.80;83.40;;;12.20;99.90;;;;;;5036208;28;20455;-75
2021/10/06 06:08:51;;;;;;;337.60;74.67;;;12.20;99.90;;;;;;5035994;28;20486;-76
2021/10/06 06:11:21;;;;;;;400.93;84.77;;;12.20;99.90;;;;;;5035754;28;20470;-75
2021/10/06 06:13:49;;;;;;;13.25;11.35;;;12.30;99.90;;;;;;5036431;28;20447;-75
2021/10/06 06:16:19;;;;;;;1999.90;918.93;;;12.30;99.90;;;;;;5035653;28;20200;-74
2021/10/06 06:18:47;;;;;;;39.85;35.72;;;12.30;99.90;;;;;;5035190;28;20449;-75
2021/10/06 06:21:15;;;;;;;1999.90;963.27;;;12.40;99.90;;;;;;5035629;28;20199;-75
2021/10/06 06:23:43;;;;;;;1645.73;373.07;;;12.40;99.90;;;;;;5035660;28;20473;-75
2021/10/06 06:26:12;;;;;;;573.03;120.77;;;12.40;99.90;;;;;;5036992;28;20439;-75
2021/10/06 06:28:40;;;;;;;358.30;96.80;;;12.40;99.90;;;;;;5035590;28;20457;-75
2021/10/06 06:31:09;;;;;;;358.90;78.50;;;12.40;99.90;;;;;;5036456;28;20483;-75
2021/10/06 06:33:39;;;;;;;388.13;84.00;;;12.40;99.90;;;;;;5035465;28;20838;-74
2021/10/06 06:36:09;;;;;;;365.07;90.47;;;12.40;99.90;;;;;;5036650;28;20435;-74
2021/10/06 06:38:37;;;;;;;413.23;94.60;;;12.50;99.90;;;;;;5036984;28;20538;-75
2021/10/06 06:41:05;;;;;;;365.33;94.87;;;12.50;99.90;;;;;;5035299;28;20554;-75
2021/10/06 06:43:34;;;;;;;414.93;81.70;;;12.50;99.90;;;;;;5035712;28;20463;-75
2021/10/06 06:46:02;;;;;;;416.87;99.27;;;12.50;99.90;;;;;;5035253;28;20455;-75
2021/10/06 06:48:30;;;;;;;443.73;108.10;;;12.60;99.90;;;;;;5036714;28;20474;-75
2021/10/06 06:51:00;;;;;;;367.23;74.67;;;12.60;99.90;;;;;;5036565;28;20470;-76
2021/10/06 06:53:28;;;;;;;13.80;12.40;;;12.60;99.90;;;;;;5034394;28;20488;-75
2021/10/06 06:55:58;;;;;;;1999.90;981.33;;;12.70;99.90;;;;;;5034959;28;20436;-75
2021/10/06 06:58:27;;;;;;;37.50;34.00;;;12.70;99.90;;;;;;5036390;28;20832;-76
2021/10/06 07:00:55;;;;;;;1999.90;999.90;;;12.70;99.90;;;;;;5034577;28;20192;-75
2021/10/06 07:03:23;;;;;;;1999.90;730.17;;;12.70;99.90;;;;;;5034710;28;20470;-76
2021/10/06 07:05:52;;;;;;;1486.63;298.77;;;12.80;99.90;;;;;;5034725;28;20966;-75
2021/10/06 07:08:21;;;;;;;469.43;113.37;;;12.80;99.90;;;;;;5034485;28;20899;-76
2021/10/06 07:10:50;;;;;;;533.37;113.07;;;12.80;99.90;;;;;;5034544;28;20471;-75
2021/10/06 07:13:30;;;;;;;431.40;111.80;;;12.80;99.90;;;;;;5034446;28;20474;-75
2021/10/06 07:15:59;;;;;;;628.17;108.90;;;12.80;99.90;;;;;;5035553;28;20780;-75
2021/10/06 07:18:29;;;;;;;272.87;74.13;;;12.80;99.90;;;;;;5034527;28;20450;-74
2021/10/06 07:20:58;;;;;;;374.47;99.10;;;12.80;99.90;;;;;;5035886;28;20442;-74
2021/10/06 07:23:28;;;;;;;796.23;203.47;;;12.80;99.90;;;;;;5034416;28;20466;-74
2021/10/06 07:25:56;;;;;;;492.40;110.50;;;12.80;99.90;;;;;;5035799;28;20489;-75
2021/10/06 07:28:24;;;;;;;1023.20;251.23;;;12.90;99.90;;;;;;5034431;28;20447;-76
2021/10/06 07:30:52;;;;;;;638.43;141.87;;;12.80;99.90;;;;;;5035116;28;20453;-75
2021/10/06 07:33:21;;;;;;;35.25;25.10;;;12.80;99.90;;;;;;5033301;28;20499;-75
2021/10/06 07:35:49;;;;;;;1999.90;999.90;;;12.90;99.90;;;;;;5034241;28;20638;-75
2021/10/06 07:38:17;;;;;;;74.07;56.45;;;12.90;99.90;;;;;;5033530;28;20581;-75
2021/10/06 07:40:47;;;;;;;1999.90;999.90;;;12.90;99.90;;;;;;5033792;28;20576;-75
2021/10/06 07:43:15;;;;;;;1999.90;808.83;;;12.90;99.90;;;;;;5033809;28;20554;-74
2021/10/06 07:45:45;;;;;;;1999.90;577.30;;;12.90;99.90;;;;;;5033762;28;20532;-75
2021/10/06 07:48:13;;;;;;;1999.90;425.90;;;13.00;99.90;;;;;;5033695;28;20549;-75
2021/10/06 07:50:42;;;;;;;1005.23;216.70;;;13.00;99.90;;;;;;5033670;28;20451;-75
2021/10/06 07:53:10;;;;;;;1262.80;247.00;;;13.00;99.90;;;;;;5034952;28;20885;-75
2021/10/06 07:55:39;;;;;;;1999.90;347.50;;;13.10;99.90;;;;;;5033372;28;20443;-75
2021/10/06 07:58:09;;;;;;;1267.90;234.60;;;13.10;99.90;;;;;;5033525;28;20447;-75
2021/10/06 08:00:37;;;;;;;950.87;185.77;;;13.10;99.90;;;;;;5034987;28;20439;-76
2021/10/06 08:03:05;;;;;;;589.20;179.07;;;13.10;99.90;;;;;;5033220;28;21070;-75
2021/10/06 08:05:34;;;;;;;859.80;173.40;;;13.10;99.90;;;;;;5033399;28;20967;-75
2021/10/06 08:08:02;;;;;;;1471.63;269.47;;;13.10;99.90;;;;;;5033368;28;20550;-75
2021/10/06 08:10:30;;;;;;;1277.10;248.80;;;13.20;99.90;;;;;;5034457;28;20446;-76
2021/10/06 08:13:00;;;;;;;413.80;210.13;;;13.30;99.90;;;;;;5032706;28;20456;-74
2021/10/06 08:15:30;;;;;;;1999.90;669.53;;;13.30;99.90;;;;;;5035016;28;20192;-75
2021/10/06 08:17:58;;;;;;;1999.90;999.90;;;13.50;99.90;;;;;;5033617;28;20534;-75
2021/10/06 08:20:27;;;;;;;1700.17;728.93;;;13.50;99.90;;;;;;5034635;28;20512;-75
2021/10/06 08:22:55;;;;;;;1569.73;695.00;;;13.60;99.90;;;;;;5034510;28;21079;-75
2021/10/06 08:25:23;;;;;;;1999.90;999.90;;;13.60;99.90;;;;;;5035082;28;20439;-75
2021/10/06 08:27:53;;;;;;;1637.13;701.37;;;13.60;99.90;;;;;;5033241;28;20533;-75
2021/10/06 08:30:21;;;;;;;1483.73;689.63;;;13.80;99.90;;;;;;5034529;28;20501;-76
2021/10/06 08:32:51;;;;;;;1999.90;999.90;;;13.90;99.90;;;;;;5034703;28;20486;-75
2021/10/06 08:35:19;;;;;;;1999.90;999.90;;;13.90;99.90;;;;;;5033246;28;20549;-75
2021/10/06 08:37:47;;;;;;;1999.90;999.90;;;14.10;99.90;;;;;;5034731;28;20485;-75
2021/10/06 08:40:16;;;;;;;1999.90;999.90;;;14.10;99.90;;;;;;5034578;28;20492;-75
2021/10/06 08:42:44;;;;;;;1999.90;999.90;;;14.20;99.90;;;;;;5033186;28;20995;-75
2021/10/06 08:45:12;;;;;;;1999.90;999.90;;;14.30;99.90;;;;;;5033053;28;20447;-75
2021/10/06 08:47:41;;;;;;;1999.90;999.90;;;14.30;99.90;;;;;;5033032;28;20454;-74
2021/10/06 08:50:13;;;;;;;1999.90;999.90;;;14.40;99.90;;;;;;5034392;28;20438;-75
2021/10/06 08:52:41;;;;;;;1999.90;999.90;;;14.40;99.90;;;;;;5032083;28;20536;-74
2021/10/06 08:55:11;;;;;;;1529.17;697.00;;;14.50;99.90;;;;;;5034580;28;20798;-74
2021/10/06 08:57:39;;;;;;;1999.90;999.90;;;14.50;99.90;;;;;;5032223;28;20958;-75
2021/10/06 09:00:09;;;;;;;1999.90;999.90;;;14.50;99.90;;;;;;5032609;28;20287;-75
2021/10/06 09:02:38;;;;;;;1999.90;999.90;;;14.50;99.90;;;;;;5032155;28;21069;-75
2021/10/06 09:05:07;;;;;;;1999.90;999.90;;;14.50;99.90;;;;;;5032270;28;20443;-75
2021/10/06 09:07:54;;;;;;;1999.90;999.90;;;14.40;99.90;;;;;;5032158;28;20968;-75
2021/10/06 09:10:23;;;;;;;1999.90;999.90;;;14.40;99.90;;;;;;5032217;28;20432;-75
2021/10/06 09:12:57;;;;;;;1999.90;999.90;;;14.40;99.90;;;;;;5032012;28;20482;-75
2021/10/06 09:15:26;;;;;;;1999.90;999.90;;;14.50;99.90;;;;;;5032774;28;20474;-75
2021/10/06 09:17:57;;;;;;;1999.90;999.90;;;14.50;99.90;;;;;;5032161;28;20434;-75
2021/10/06 09:20:38;;;;;;;1999.90;647.23;;;14.60;99.90;;;;;;5033514;28;20415;-75
2021/10/06 09:23:09;;;;;;;1999.90;999.90;;;14.60;99.90;;;;;;5033345;28;20959;-75
2021/10/06 09:25:52;;;;;;;1999.90;627.47;;;14.60;99.90;;;;;;5032155;28;20447;-76
2021/10/06 09:28:25;;;;;;;1999.90;690.47;;;14.50;99.90;;;;;;5033547;28;20793;-75
2021/10/06 09:30:58;;;;;;;1999.90;471.70;;;14.50;99.90;;;;;;5031567;28;20448;-75
2021/10/06 09:33:41;;;;;;;1999.90;999.90;;;14.50;99.90;;;;;;5033115;28;20228;-75
2021/10/06 09:36:14;;;;;;;1999.90;999.90;;;14.50;99.90;;;;;;5031880;28;20511;-75
2021/10/06 09:38:47;;;;;;;1999.90;999.90;;;14.60;99.90;;;;;;5034471;28;20192;-75
2021/10/06 09:41:41;;;;;;;1999.90;999.90;;;14.70;99.90;;;;;;5036177;28;20454;-75
2021/10/06 09:44:11;;;;;;;1999.90;999.90;;;14.70;99.90;;;;;;5023644;28;20904;-75
2021/10/06 09:46:56;;;;;;;1999.90;999.90;;;14.80;99.90;;;;;;5035990;28;20438;-75
2021/10/06 09:49:27;;;;;;;1999.90;999.90;;;14.80;99.90;;;;;;5035958;28;21005;-75
2021/10/06 09:52:12;;;;;;;1999.90;999.90;;;14.80;99.90;;;;;;5035787;28;20463;-75
2021/10/06 09:54:47;;;;;;;1999.90;526.30;;;14.80;99.90;;;;;;5037427;28;20588;-75
2021/10/06 09:57:27;;;;;;;1999.90;999.90;;;14.80;99.90;;;;;;5035777;28;20952;-75
2021/10/06 09:59:57;;;;;;;1999.90;712.10;;;14.80;99.90;;;;;;5035654;28;20457;-75
2021/10/06 10:02:26;;;;;;;1999.90;999.90;;;14.80;99.90;;;;;;5035609;28;20562;-76
2021/10/06 10:04:56;;;;;;;1999.90;999.90;;;14.90;99.90;;;;;;5035711;28;20451;-75
2021/10/06 10:07:25;;;;;;;1999.90;999.90;;;14.90;99.90;;;;;;5035510;28;20429;-75
2021/10/06 10:09:55;;;;;;;1999.90;964.10;;;15.00;99.90;;;;;;5034525;28;20977;-75
2021/10/06 10:12:26;;;;;;;1999.90;999.90;;;15.10;99.90;;;;;;5036815;28;20295;-76
2021/10/06 10:14:55;;;;;;;1999.90;699.58;;;15.20;99.90;;;;;;5036311;28;20437;-75
2021/10/06 10:17:24;;;;;;;1999.90;999.90;;;15.20;99.90;;;;;;5035296;28;20196;-75
2021/10/06 10:19:56;;;;;;;1999.90;999.90;;;15.20;99.90;;;;;;5035468;28;20445;-75
2021/10/06 10:22:28;;;;;;;1999.90;555.40;;;15.20;99.90;;;;;;5035210;28;20476;-74
2021/10/06 10:24:58;;;;;;;1999.90;999.90;;;15.20;99.90;;;;;;5035219;28;20424;-75
2021/10/06 10:27:26;;;;;;;1999.90;631.57;;;15.20;99.90;;;;;;5035404;28;20914;-75
2021/10/06 10:30:03;;;;;;;1999.90;715.57;;;15.20;99.90;;;;;;5036533;28;20413;-75
2021/10/06 10:32:43;;;;;;;1999.90;868.53;;;15.20;99.90;;;;;;5034866;28;20474;-75
2021/10/06 10:35:13;;;;;;;1999.90;832.80;;;15.20;99.90;;;;;;5035135;28;20789;-75
2021/10/06 10:38:09;;;;;;;1999.90;771.63;;;15.20;99.90;;;;;;5036213;28;20534;-75
2021/10/06 10:40:44;;;;;;;1999.90;788.80;;;15.20;99.90;;;;;;5031360;28;20541;-75
2021/10/06 10:43:13;;;;;;;1999.90;888.47;;;15.10;99.90;;;;;;5036451;28;20549;-75
2021/10/06 10:45:47;;;;;;;1999.90;772.47;;;15.10;99.90;;;;;;5034661;28;20784;-76
2021/10/06 10:48:17;;;;;;;1999.90;833.00;;;15.10;99.90;;;;;;5036028;28;20272;-75
2021/10/06 10:51:05;;;;;;;1999.90;875.30;;;15.10;99.90;;;;;;5036339;28;20433;-75
2021/10/06 10:54:02;;;;;;;1999.90;999.90;;;15.10;99.90;;;;;;5033487;28;20420;-75
2021/10/06 10:56:50;;;;;;;1999.90;999.90;;;15.10;99.90;;;;;;5034564;28;20688;-75
2021/10/06 10:59:20;;;;;;;1999.90;828.37;;;15.10;99.90;;;;;;5036046;28;20518;-75
2021/10/06 11:01:52;;;;;;;1999.90;792.03;;;15.10;99.90;;;;;;5034452;28;20502;-75
2021/10/06 11:04:24;;;;;;;1999.90;779.03;;;15.10;99.90;;;;;;5035839;28;20819;-75
2021/10/06 11:06:54;;;;;;;1999.90;876.23;;;15.00;99.90;;;;;;5034477;28;20444;-75
2021/10/06 11:09:43;;;;;;;1999.90;724.77;;;15.00;99.90;;;;;;5034364;28;20482;-75
2021/10/06 11:12:53;;;;;;;1999.90;867.80;;;15.00;99.90;;;;;;5034227;28;20469;-75
2021/10/06 11:15:37;;;;;;;1999.90;837.27;;;14.90;99.90;;;;;;5036162;28;20429;-76
2021/10/06 11:18:18;;;;;;;1999.90;934.90;;;14.90;99.90;;;;;;5032560;28;20534;-75
2021/10/06 11:20:50;;;;;;;1999.90;999.90;;;14.90;99.90;;;;;;5034222;28;20410;-75
2021/10/06 11:23:49;;;;;;;1999.90;999.90;;;14.90;99.90;;;;;;5033617;28;20489;-75
2021/10/06 11:26:20;;;;;;;1999.90;999.90;;;14.90;99.90;;;;;;5001733;28;20295;-75
2021/10/06 11:28:51;;;;;;;1999.90;999.90;;;14.90;99.90;;;;;;5035169;28;20478;-75
2021/10/06 11:31:23;;;;;;;1999.90;999.90;;;14.90;99.90;;;;;;5033858;28;20208;-75
2021/10/06 11:33:52;;;;;;;1999.90;999.90;;;14.90;99.90;;;;;;5035707;28;20573;-76
2021/10/06 11:36:22;;;;;;;1999.90;999.90;;;14.90;99.90;;;;;;5033800;28;20425;-75
2021/10/06 11:39:02;;;;;;;1999.90;999.90;;;14.80;99.90;;;;;;5034066;28;20469;-75
2021/10/06 11:41:31;;;;;;;1999.90;999.90;;;14.80;99.90;;;;;;5033822;28;20481;-75
2021/10/06 11:44:00;;;;;;;1999.90;999.90;;;14.70;99.90;;;;;;5033735;28;20438;-75
2021/10/06 11:46:32;;;;;;;1999.90;999.90;;;14.70;99.90;;;;;;5033690;28;20483;-75
2021/10/06 11:49:03;;;;;;;1999.90;999.90;;;14.70;99.90;;;;;;5033676;28;20471;-75
2021/10/06 11:51:43;;;;;;;1958.40;493.13;;;14.70;99.90;;;;;;5033623;28;20410;-75
2021/10/06 11:54:12;;;;;;;1999.90;999.90;;;14.70;99.90;;;;;;5035020;28;20514;-75
2021/10/06 11:56:41;;;;;;;1999.90;999.90;;;14.60;99.90;;;;;;5033447;28;20421;-75
2021/10/06 11:59:13;;;;;;;719.08;272.20;;;14.60;99.90;;;;;;5034584;28;20547;-75
2021/10/06 12:01:50;;;;;;;1999.90;999.90;;;14.60;99.90;;;;;;5034356;28;20183;-75
2021/10/06 12:04:20;;;;;;;1999.90;999.90;;;14.60;99.90;;;;;;5034653;28;20863;-75
2021/10/06 12:06:51;;;;;;;1999.90;999.90;;;14.60;99.90;;;;;;5034440;28;20939;-75
2021/10/06 12:09:19;;;;;;;1999.90;999.90;;;14.50;99.90;;;;;;5033274;28;20453;-75
2021/10/06 12:11:48;;;;;;;1999.90;999.90;;;14.50;99.90;;;;;;5033024;28;20449;-76
2021/10/06 12:14:23;;;;;;;1999.90;999.90;;;14.50;99.90;;;;;;5032992;28;20570;-75
2021/10/06 12:17:02;;;;;;;1999.90;999.90;;;14.50;99.90;;;;;;5034690;28;20417;-75
2021/10/06 12:19:31;;;;;;;1999.90;999.90;;;14.50;99.90;;;;;;5033104;28;20450;-75
2021/10/06 12:21:59;;;;;;;1999.90;999.90;;;14.50;99.90;;;;;;5032822;28;20444;-75
2021/10/06 12:24:30;;;;;;;1999.90;999.90;;;14.50;99.90;;;;;;5032791;28;20530;-75
2021/10/06 12:26:58;;;;;;;1328.57;380.90;;;14.50;99.90;;;;;;5032844;28;20451;-75
2021/10/06 12:29:30;;;;;;;1999.90;999.90;;;14.50;99.90;;;;;;5034005;28;20450;-75
2021/10/06 12:32:16;;;;;;;1999.90;999.90;;;14.50;99.90;;;;;;5032654;28;20482;-75
2021/10/06 12:34:46;;;;;;;1519.37;680.73;;;14.60;99.90;;;;;;5033123;28;20491;-75
2021/10/06 12:37:16;;;;;;;1999.90;999.90;;;14.50;99.90;;;;;;5034502;28;20426;-75
2021/10/06 12:39:45;;;;;;;1999.90;999.90;;;14.60;99.90;;;;;;5032752;28;20859;-75
2021/10/06 12:43:16;;;;;;;1999.90;800.97;;;14.60;99.90;;;;;;5033749;28;20968;-75
2021/10/06 12:49:29;;;;;;;1999.90;999.90;;;14.70;99.90;;;;;;5031440;28;20572;-75
2021/10/06 12:52:01;;;;;;;1999.90;999.90;;;14.60;99.90;;;;;;5032395;28;20497;-75
2021/10/06 12:54:31;;;;;;;1999.90;999.90;;;14.60;99.90;;;;;;5032530;28;20463;-75
2021/10/06 12:57:01;;;;;;;1999.90;999.90;;;14.60;99.90;;;;;;5032342;28;20458;-76
2021/10/06 12:59:35;;;;;;;1999.90;999.90;;;14.70;99.90;;;;;;5033581;28;20492;-75
2021/10/06 13:02:05;;;;;;;1999.90;999.90;;;14.70;99.90;;;;;;5032449;28;20450;-75
2021/10/06 13:04:37;;;;;;;1999.90;999.90;;;14.70;99.90;;;;;;5032309;28;20439;-75
2021/10/06 13:07:07;;;;;;;1999.90;999.90;;;14.70;99.90;;;;;;5032287;28;20443;-75
2021/10/06 13:09:36;;;;;;;1999.90;999.90;;;14.80;99.90;;;;;;5032174;28;20938;-75
2021/10/06 13:12:06;;;;;;;1999.90;999.90;;;14.80;99.90;;;;;;5032926;28;20455;-75
2021/10/06 13:14:35;;;;;;;1999.90;999.90;;;14.80;99.90;;;;;;5032099;28;20491;-75
2021/10/06 13:17:04;;;;;;;1999.90;999.90;;;14.70;99.90;;;;;;5033482;28;20940;-75
2021/10/06 13:19:32;;;;;;;1999.90;999.90;;;14.70;99.90;;;;;;5033635;28;20450;-75
2021/10/06 13:22:03;;;;;;;1999.90;999.90;;;14.70;99.90;;;;;;5032100;28;20443;-75
2021/10/06 13:24:31;;;;;;;1999.90;999.90;;;14.70;99.90;;;;;;5031856;28;20501;-75
2021/10/06 13:26:59;;;;;;;1690.93;247.10;;;14.70;99.90;;;;;;5032144;28;20581;-75
2021/10/06 13:29:27;;;;;;;1412.63;208.27;;;14.70;99.90;;;;;;5033508;28;20439;-75
2021/10/06 13:31:59;;;;;;;1957.10;339.37;;;14.60;99.90;;;;;;5031841;28;20537;-75
2021/10/06 13:34:27;;;;;;;1999.90;631.17;;;14.60;99.90;;;;;;5031925;28;20499;-76
2021/10/06 13:36:55;;;;;;;1999.90;915.53;;;14.60;99.90;;;;;;5033217;28;20759;-76
2021/10/06 13:39:25;;;;;;;1999.90;968.13;;;14.60;99.90;;;;;;5033145;28;20471;-76
2021/10/06 13:41:53;;;;;;;1999.90;905.70;;;14.60;99.90;;;;;;5033406;28;20469;-75
2021/10/06 13:44:21;;;;;;;1999.90;854.40;;;14.60;99.90;;;;;;5031908;28;20486;-75
2021/10/06 13:46:50;;;;;;;1999.90;663.17;;;14.60;99.90;;;;;;5033370;28;20508;-75
2021/10/06 13:49:18;;;;;;;1999.90;699.07;;;14.60;99.90;;;;;;5033633;28;20448;-75
2021/10/06 13:51:46;;;;;;;1999.90;616.63;;;14.50;99.90;;;;;;5031667;28;20451;-76
2021/10/06 13:54:14;;;;;;;1999.90;884.90;;;14.50;99.90;;;;;;5031750;28;20804;-75
2021/10/06 13:56:46;;;;;;;8.85;8.05;;;14.50;99.90;;;;;;5030627;28;20445;-76
2021/10/06 13:59:14;;;;;;;1999.90;798.77;;;14.60;99.90;;;;;;5031870;28;20235;-76
2021/10/06 14:01:42;;;;;;;9.90;9.00;;;14.60;99.90;;;;;;5030895;28;20427;-75
2021/10/06 14:04:11;;;;;;;1908.07;709.70;;;14.70;99.90;;;;;;5032021;28;20474;-76
2021/10/06 14:06:39;;;;;;;1999.90;999.90;;;14.60;99.90;;;;;;5033256;28;20445;-75
2021/10/06 14:09:08;;;;;;;1999.90;999.90;;;14.60;99.90;;;;;;5033187;28;20871;-75
2021/10/06 14:11:36;;;;;;;1999.90;985.93;;;14.60;99.90;;;;;;5033187;28;20508;-75
2021/10/06 14:14:06;;;;;;;1999.90;968.83;;;14.50;99.90;;;;;;5032835;28;20437;-75
2021/10/06 14:16:35;;;;;;;1999.90;927.50;;;14.50;99.90;;;;;;5032741;28;20466;-75
2021/10/06 14:19:05;;;;;;;1999.90;774.37;;;14.50;99.90;;;;;;5031628;28;20943;-76
2021/10/06 14:21:33;;;;;;;1999.90;786.83;;;14.50;99.90;;;;;;5033106;28;20419;-75
2021/10/06 14:24:01;;;;;;;1999.90;795.67;;;14.50;99.90;;;;;;5033908;28;20507;-76
2021/10/06 14:26:29;;;;;;;1999.90;930.33;;;14.40;99.90;;;;;;5035424;28;20791;-75
2021/10/06 14:28:57;;;;;;;1999.90;976.50;;;14.50;99.90;;;;;;5035185;28;20505;-76
2021/10/06 14:31:28;;;;;;;43.83;36.78;;;14.40;99.90;;;;;;5035773;28;20442;-76
2021/10/06 14:33:58;;;;;;;1999.90;984.07;;;14.50;99.90;;;;;;5035031;28;20238;-75
2021/10/06 14:36:27;;;;;;;1999.90;968.13;;;14.50;99.90;;;;;;5034812;28;20439;-75
2021/10/06 14:38:55;;;;;;;1999.90;999.90;;;14.60;99.90;;;;;;5036301;28;20275;-76
2021/10/06 14:41:23;;;;;;;1999.90;695.00;;;14.60;99.90;;;;;;5034891;28;20446;-76
2021/10/06 14:43:52;;;;;;;1999.90;619.77;;;14.60;99.90;;;;;;5036053;28;20461;-74
2021/10/06 14:46:21;;;;;;;1999.90;648.40;;;14.60;99.90;;;;;;5034875;28;20453;-75
2021/10/06 14:48:50;;;;;;;1999.90;419.93;;;14.50;99.90;;;;;;5035966;28;20903;-75
2021/10/06 14:51:19;;;;;;;1999.90;801.53;;;14.50;99.90;;;;;;5036305;28;20791;-75